Weather at Alejandro Velasco Astete International Airport

Public forecast

Using degrees Celsius for public forecast. Weather courtesy of forecast.io.

Current aviation weather report (METAR) for Alejandro Velasco Astete International Airport

Retrieved 2020/09/27 21:00 UTC (31 minutes ago):

SPZO 272100Z 02010KT 350V090 9999 SCT046 SCT100 18/00 Q1025 NOSIG RMK BIRD HAZARD RWY 28 PP000

Aviation forecast (TAF) for Alejandro Velasco Astete International Airport

Retrieved 2020/09/27 18:33 UTC (3 hours ago):

TAF SPZO 271700Z 2718/2818 25002KT 9999 SCT080 TX23/2720Z TN05/2811Z BECMG 2718/2720 05013KT BECMG 2800/2802 00000KT